KAUM/AUM METAR and TAF weather

Enter ICAO airport designator
Station Type Date Time Source
KAUM METAR 2020/09/26 10:55 UTC NOAA

KAUM 261055Z AUTO 00000KT 10SM CLR 15/14 A2971 RMK AO2


Station Type Date Time Source
KAUM Decoded METAR 2020/09/26 10:55 UTC NOAA

Austin Municipal, MN, United States (KAUM) 43-40N 092-56W
Sep 26, 2020 - 06:55 AM EDT / 2020.09.26 1055 UTC
Wind: Calm:0
Visibility: 10 mile(s):0
Sky conditions: clear
Temperature: 59 F (15 C)
Dew Point: 57 F (14 C)
Relative Humidity: 93%
Pressure (altimeter): 29.71 in. Hg (1006 hPa)
ob: KAUM 261055Z AUTO 00000KT 10SM CLR 15/14 A2971 RMK AO2
cycle: 11

Station Type Date Time Source
KAUM TAF UTC NOAA

Error!

Example: see airport list